Time;durP1;ratioP1;P1;durP2;ratioP2;P2;SDS_P1;SDS_P2;PMS_P1;PMS_P2;Temp;Humidity;BMP_temperature;BMP_pressure;BME280_temperature;BME280_humidity;BME280_pressure;Samples;Min_cycle;Max_cycle;Signal;HPM_P1;HPM_P2
2023/09/25 06:01:22;;;;;;;9.10;5.17;;;;;;;;;;5543453;23;20505;-69
2023/09/25 06:03:49;;;;;;;7.83;4.97;;;;;;;;;;4919699;29;20475;-69
2023/09/25 06:06:15;;;;;;;12.20;4.83;;;;;;;;;;4919708;29;20437;-70
2023/09/25 06:08:41;;;;;;;7.50;4.37;;;;;;;;;;4922049;29;20426;-69
2023/09/25 06:11:07;;;;;;;11.00;4.90;;;;;;;;;;4910691;29;20494;-71
2023/09/25 06:13:34;;;;;;;6.77;4.53;;;;;;;;;;4899066;29;20512;-69
2023/09/25 06:16:00;;;;;;;10.17;4.63;;;;;;;;;;4899611;29;20418;-69
2023/09/25 06:18:26;;;;;;;8.90;4.90;;;;;;;;;;4901811;29;20467;-68
2023/09/25 06:20:54;;;;;;;9.10;4.47;;;;;;;;;;4905759;29;20474;-69
2023/09/25 06:23:20;;;;;;;8.10;4.80;;;;;;;;;;4897661;29;20435;-68
2023/09/25 06:25:46;;;;;;;9.00;4.50;;;;;;;;;;4898144;29;20767;-69
2023/09/25 06:28:14;;;;;;;7.30;4.90;;;;;;;;;;4895727;29;20431;-69
2023/09/25 06:30:41;;;;;;;8.43;4.90;;;;;;;;;;4896748;29;20894;-69
2023/09/25 06:33:07;;;;;;;10.27;4.93;;;;;;;;;;4899105;29;20785;-72
2023/09/25 06:35:33;;;;;;;9.30;5.03;;;;;;;;;;4898519;29;20539;-72
2023/09/25 06:37:59;;;;;;;7.47;4.63;;;;;;;;;;4898557;29;20835;-71
2023/09/25 06:40:25;;;;;;;9.97;4.80;;;;;;;;;;4898213;29;20442;-73
2023/09/25 06:42:51;;;;;;;12.53;4.70;;;;;;;;;;4899013;29;20510;-73
2023/09/25 06:45:18;;;;;;;8.73;5.00;;;;;;;;;;4897410;29;22351;-74
2023/09/25 06:47:47;;;;;;;12.50;4.83;;;;;;;;;;4896567;29;20479;-74
2023/09/25 06:50:12;;;;;;;8.73;5.03;;;;;;;;;;4897263;29;20435;-71
2023/09/25 06:52:40;;;;;;;10.03;4.70;;;;;;;;;;4891013;29;20827;-70
2023/09/25 06:55:06;;;;;;;8.43;4.83;;;;;;;;;;4892757;29;20587;-67
2023/09/25 06:57:32;;;;;;;12.23;5.70;;;;;;;;;;4893893;29;20475;-70
2023/09/25 06:59:58;;;;;;;11.23;5.20;;;;;;;;;;4895231;29;20431;-68
2023/09/25 07:02:25;;;;;;;15.70;4.43;;;;;;;;;;4897447;29;20959;-71
2023/09/25 07:04:51;;;;;;;10.67;5.30;;;;;;;;;;4888766;29;20788;-71
2023/09/25 07:07:18;;;;;;;14.40;4.90;;;;;;;;;;4893931;29;20442;-70
2023/09/25 07:09:44;;;;;;;13.27;5.43;;;;;;;;;;4899242;29;20439;-72
2023/09/25 07:12:14;;;;;;;9.60;5.20;;;;;;;;;;4916496;29;20506;-72
2023/09/25 07:14:40;;;;;;;11.13;5.40;;;;;;;;;;4887589;29;20428;-71
2023/09/25 07:17:06;;;;;;;9.23;5.07;;;;;;;;;;4901235;29;20466;-71
2023/09/25 07:19:32;;;;;;;10.50;5.37;;;;;;;;;;4894083;29;20449;-71
2023/09/25 07:21:58;;;;;;;8.30;4.53;;;;;;;;;;4895851;29;20459;-72
2023/09/25 07:24:23;;;;;;;13.70;5.03;;;;;;;;;;4898364;29;20478;-72
2023/09/25 07:26:51;;;;;;;10.80;5.10;;;;;;;;;;4898432;29;20438;-71
2023/09/25 07:29:19;;;;;;;8.37;5.50;;;;;;;;;;4902369;29;20438;-72
2023/09/25 07:31:45;;;;;;;7.63;5.17;;;;;;;;;;4917087;29;20442;-72
2023/09/25 07:34:11;;;;;;;13.10;5.80;;;;;;;;;;4903845;29;20432;-72
2023/09/25 07:36:36;;;;;;;11.07;5.60;;;;;;;;;;4898444;29;20436;-72
2023/09/25 07:39:04;;;;;;;7.10;4.63;;;;;;;;;;4898125;29;20560;-72
2023/09/25 07:41:30;;;;;;;9.70;5.90;;;;;;;;;;4898301;29;20507;-72
2023/09/25 07:43:56;;;;;;;10.70;4.53;;;;;;;;;;4895229;29;20952;-71
2023/09/25 07:46:25;;;;;;;9.73;5.33;;;;;;;;;;4899154;29;20435;-72
2023/09/25 07:48:52;;;;;;;8.60;5.13;;;;;;;;;;4898587;29;20514;-72
2023/09/25 07:51:18;;;;;;;11.30;5.93;;;;;;;;;;4898007;29;20554;-72
2023/09/25 07:53:44;;;;;;;9.60;5.40;;;;;;;;;;4894778;29;20479;-72
2023/09/25 07:56:10;;;;;;;11.10;5.40;;;;;;;;;;4897468;29;20434;-71
2023/09/25 07:58:39;;;;;;;10.07;5.90;;;;;;;;;;4899794;29;20510;-72
2023/09/25 08:01:08;;;;;;;10.70;5.87;;;;;;;;;;4907812;29;20466;-72
2023/09/25 08:03:34;;;;;;;10.37;4.70;;;;;;;;;;4905763;29;20920;-71
2023/09/25 08:06:05;;;;;;;8.60;4.67;;;;;;;;;;4901052;29;20490;-72
2023/09/25 08:08:31;;;;;;;9.93;5.70;;;;;;;;;;4906465;29;20841;-71
2023/09/25 08:10:57;;;;;;;9.30;5.70;;;;;;;;;;4879298;29;20445;-72
2023/09/25 08:13:23;;;;;;;8.40;4.90;;;;;;;;;;4878980;29;20864;-72
2023/09/25 08:15:49;;;;;;;9.60;4.57;;;;;;;;;;4884303;29;20491;-72
2023/09/25 08:18:15;;;;;;;7.70;4.57;;;;;;;;;;4900963;29;20494;-72
2023/09/25 08:20:41;;;;;;;9.93;4.20;;;;;;;;;;4896225;29;20446;-72
2023/09/25 08:23:07;;;;;;;8.23;4.60;;;;;;;;;;4897288;29;20440;-72
2023/09/25 08:25:33;;;;;;;8.13;4.83;;;;;;;;;;4903046;29;20427;-72
2023/09/25 08:27:59;;;;;;;6.20;4.60;;;;;;;;;;4905185;29;20461;-71
2023/09/25 08:30:26;;;;;;;9.67;5.20;;;;;;;;;;4908017;29;20466;-73
2023/09/25 08:32:53;;;;;;;12.47;5.50;;;;;;;;;;4896139;29;20795;-73
2023/09/25 08:35:19;;;;;;;7.33;4.23;;;;;;;;;;4890798;29;20423;-73
2023/09/25 08:37:45;;;;;;;7.90;4.63;;;;;;;;;;4898120;29;20522;-73
2023/09/25 08:40:11;;;;;;;6.37;4.33;;;;;;;;;;4897395;29;20466;-72
2023/09/25 08:42:37;;;;;;;7.80;3.90;;;;;;;;;;4897419;29;20428;-73
2023/09/25 08:45:04;;;;;;;8.93;4.33;;;;;;;;;;4898512;29;20423;-73
2023/09/25 08:47:34;;;;;;;7.13;4.00;;;;;;;;;;4898107;29;20452;-73
2023/09/25 08:50:00;;;;;;;6.20;3.80;;;;;;;;;;4897601;29;20446;-72
2023/09/25 08:52:27;;;;;;;6.00;3.80;;;;;;;;;;4897429;29;20853;-69
2023/09/25 08:54:53;;;;;;;6.90;4.10;;;;;;;;;;4896465;29;20462;-72
2023/09/25 08:57:20;;;;;;;6.63;3.43;;;;;;;;;;4897008;29;20455;-71
2023/09/25 08:59:47;;;;;;;8.13;3.90;;;;;;;;;;4899658;29;20459;-72
2023/09/25 09:02:14;;;;;;;6.13;3.97;;;;;;;;;;4899373;29;20893;-71
2023/09/25 09:04:39;;;;;;;5.50;3.40;;;;;;;;;;4898030;29;20442;-71
2023/09/25 09:07:06;;;;;;;8.00;3.57;;;;;;;;;;4896787;29;20822;-72
2023/09/25 09:09:32;;;;;;;5.77;3.50;;;;;;;;;;4896504;29;20476;-72
2023/09/25 09:11:58;;;;;;;8.07;3.50;;;;;;;;;;4896468;29;20522;-72
2023/09/25 09:14:41;;;;;;;5.90;3.60;;;;;;;;;;4895821;29;20516;-72
2023/09/25 09:17:08;;;;;;;7.43;4.03;;;;;;;;;;4896656;29;20412;-72
2023/09/25 09:19:38;;;;;;;6.40;3.30;;;;;;;;;;4895776;29;20927;-72
2023/09/25 09:22:05;;;;;;;9.90;4.13;;;;;;;;;;4896419;29;20499;-72
2023/09/25 09:24:32;;;;;;;6.97;3.53;;;;;;;;;;4887436;29;20463;-71
2023/09/25 09:26:58;;;;;;;6.20;3.37;;;;;;;;;;4877475;29;20475;-73
2023/09/25 09:29:25;;;;;;;7.50;3.67;;;;;;;;;;4879521;29;20428;-72
2023/09/25 09:31:57;;;;;;;7.40;3.00;;;;;;;;;;4915354;29;20437;-72
2023/09/25 09:34:24;;;;;;;7.50;3.57;;;;;;;;;;4900422;29;20897;-72
2023/09/25 09:36:51;;;;;;;7.37;3.40;;;;;;;;;;4877814;29;20928;-72
2023/09/25 09:39:18;;;;;;;6.67;3.37;;;;;;;;;;4877718;29;20888;-70
2023/09/25 09:41:45;;;;;;;20.70;6.47;;;;;;;;;;4884725;29;20488;-72
2023/09/25 09:44:11;;;;;;;11.10;4.00;;;;;;;;;;4900977;29;20503;-71
2023/09/25 09:46:38;;;;;;;8.50;3.67;;;;;;;;;;4892890;29;20527;-72
2023/09/25 09:49:04;;;;;;;7.37;2.90;;;;;;;;;;4896230;29;20427;-72
2023/09/25 09:51:32;;;;;;;5.43;3.20;;;;;;;;;;4896185;29;20439;-72
2023/09/25 09:54:01;;;;;;;8.93;3.57;;;;;;;;;;4899506;29;20431;-72
2023/09/25 09:56:27;;;;;;;9.73;4.00;;;;;;;;;;4907176;29;20490;-71
2023/09/25 09:58:54;;;;;;;11.80;4.27;;;;;;;;;;4896098;29;20486;-72
2023/09/25 10:01:21;;;;;;;4.53;3.43;;;;;;;;;;4897076;29;20475;-71
2023/09/25 10:03:47;;;;;;;6.77;3.70;;;;;;;;;;4892455;29;20416;-72
2023/09/25 10:06:14;;;;;;;8.13;3.80;;;;;;;;;;4887159;29;21058;-72
2023/09/25 10:08:58;;;;;;;5.53;3.30;;;;;;;;;;4893110;29;20450;-72
2023/09/25 10:11:25;;;;;;;6.53;3.40;;;;;;;;;;4898086;29;20447;-71
2023/09/25 10:13:53;;;;;;;7.30;3.53;;;;;;;;;;4898451;29;20870;-72
2023/09/25 10:16:19;;;;;;;6.93;3.40;;;;;;;;;;4896163;29;20426;-72
2023/09/25 10:18:46;;;;;;;5.07;3.00;;;;;;;;;;4882587;29;20468;-72
2023/09/25 10:21:14;;;;;;;5.50;2.97;;;;;;;;;;4899231;29;20455;-71
2023/09/25 10:23:49;;;;;;;6.80;3.53;;;;;;;;;;4889121;29;20435;-70
2023/09/25 10:26:20;;;;;;;5.27;3.20;;;;;;;;;;4898314;29;20441;-70
2023/09/25 10:28:56;;;;;;;4.27;2.97;;;;;;;;;;4899080;29;20435;-70
2023/09/25 10:31:25;;;;;;;4.70;2.80;;;;;;;;;;4896382;29;20471;-74
2023/09/25 10:33:54;;;;;;;7.13;3.07;;;;;;;;;;4898176;29;20446;-71
2023/09/25 10:36:20;;;;;;;6.67;3.37;;;;;;;;;;4897841;29;20442;-72
2023/09/25 10:38:55;;;;;;;4.10;2.83;;;;;;;;;;4895744;29;20475;-74
2023/09/25 10:41:22;;;;;;;8.13;3.90;;;;;;;;;;4899533;29;20568;-72
2023/09/25 10:43:57;;;;;;;5.13;2.57;;;;;;;;;;4899021;29;20430;-73
2023/09/25 10:46:23;;;;;;;4.73;2.87;;;;;;;;;;4898330;29;20441;-69
2023/09/25 10:48:49;;;;;;;4.23;3.33;;;;;;;;;;4898001;29;20431;-72
2023/09/25 10:51:20;;;;;;;5.10;3.23;;;;;;;;;;4895041;29;21057;-70
2023/09/25 10:53:46;;;;;;;9.60;2.67;;;;;;;;;;4898819;29;20456;-70
2023/09/25 10:56:12;;;;;;;5.00;2.60;;;;;;;;;;4903323;29;20430;-73
2023/09/25 10:58:38;;;;;;;4.40;2.30;;;;;;;;;;4895961;29;20474;-72
2023/09/25 11:01:05;;;;;;;9.70;2.83;;;;;;;;;;4899411;29;21029;-72
2023/09/25 11:03:34;;;;;;;5.73;3.00;;;;;;;;;;4893838;29;20935;-78
2023/09/25 11:06:00;;;;;;;5.10;3.30;;;;;;;;;;4904780;29;20427;-76
2023/09/25 11:08:26;;;;;;;5.07;2.80;;;;;;;;;;4898223;29;20431;-73
2023/09/25 11:10:52;;;;;;;4.03;2.63;;;;;;;;;;4899446;29;20823;-73
2023/09/25 11:13:19;;;;;;;5.03;2.67;;;;;;;;;;4898719;29;20419;-71
2023/09/25 11:15:46;;;;;;;3.37;2.70;;;;;;;;;;4898669;29;20427;-71
2023/09/25 11:18:12;;;;;;;4.10;2.60;;;;;;;;;;4898270;29;20470;-71
2023/09/25 11:20:39;;;;;;;4.20;2.60;;;;;;;;;;4898542;29;20931;-71
2023/09/25 11:23:09;;;;;;;5.37;2.80;;;;;;;;;;4898841;29;20419;-71
2023/09/25 11:25:42;;;;;;;6.80;2.90;;;;;;;;;;4898450;29;20411;-71
2023/09/25 11:28:09;;;;;;;5.70;2.90;;;;;;;;;;4898330;29;20782;-71
2023/09/25 11:30:35;;;;;;;11.07;4.03;;;;;;;;;;4898267;29;20435;-70
2023/09/25 11:33:10;;;;;;;4.80;2.57;;;;;;;;;;4898107;29;20426;-71
2023/09/25 11:35:39;;;;;;;3.93;2.87;;;;;;;;;;4897578;29;20467;-71
2023/09/25 11:38:20;;;;;;;3.50;2.30;;;;;;;;;;4898095;29;20561;-70
2023/09/25 11:40:46;;;;;;;6.87;3.27;;;;;;;;;;4898227;29;20801;-71
2023/09/25 11:43:12;;;;;;;6.50;2.67;;;;;;;;;;4898313;29;20435;-71
2023/09/25 11:45:41;;;;;;;4.73;2.83;;;;;;;;;;4898166;29;20554;-70
2023/09/25 11:48:11;;;;;;;4.73;3.03;;;;;;;;;;4898241;29;20451;-70
2023/09/25 11:50:38;;;;;;;3.60;2.37;;;;;;;;;;4898163;29;20519;-71
2023/09/25 11:53:06;;;;;;;3.73;2.63;;;;;;;;;;4897690;29;20542;-71
2023/09/25 11:55:32;;;;;;;11.00;2.90;;;;;;;;;;4897823;29;20463;-72
2023/09/25 11:57:58;;;;;;;3.10;2.30;;;;;;;;;;4898014;29;20471;-71
2023/09/25 12:00:27;;;;;;;7.80;2.87;;;;;;;;;;4897871;29;20414;-71
2023/09/25 12:02:53;;;;;;;4.17;2.67;;;;;;;;;;4897887;29;20412;-70
2023/09/25 12:05:20;;;;;;;2.70;2.33;;;;;;;;;;4897533;29;20423;-69
2023/09/25 12:07:47;;;;;;;5.17;2.50;;;;;;;;;;4897895;29;20419;-69
2023/09/25 12:10:16;;;;;;;2.77;2.20;;;;;;;;;;4897607;29;20412;-69
2023/09/25 12:12:44;;;;;;;4.40;2.27;;;;;;;;;;4897446;29;20447;-71
2023/09/25 12:15:11;;;;;;;3.77;2.53;;;;;;;;;;4899140;29;20426;-70
2023/09/25 12:17:38;;;;;;;4.37;2.50;;;;;;;;;;4897555;29;20554;-71
2023/09/25 12:20:13;;;;;;;4.87;2.20;;;;;;;;;;4893865;29;20423;-71
2023/09/25 12:22:43;;;;;;;4.57;2.67;;;;;;;;;;4886599;29;20492;-72
2023/09/25 12:25:13;;;;;;;4.97;2.37;;;;;;;;;;4878514;29;20518;-71
2023/09/25 12:27:40;;;;;;;4.67;2.30;;;;;;;;;;4878740;29;20416;-71
2023/09/25 12:30:07;;;;;;;3.30;2.30;;;;;;;;;;4878121;29;20446;-71
2023/09/25 12:32:34;;;;;;;4.50;2.67;;;;;;;;;;4878217;29;20470;-71
2023/09/25 12:35:00;;;;;;;3.77;2.03;;;;;;;;;;4890152;29;20450;-71
2023/09/25 12:37:26;;;;;;;3.40;2.27;;;;;;;;;;4898397;29;20463;-71
2023/09/25 12:39:52;;;;;;;4.80;2.73;;;;;;;;;;4892150;29;20559;-71
2023/09/25 12:42:19;;;;;;;3.57;2.33;;;;;;;;;;4895632;29;20835;-71
2023/09/25 12:44:46;;;;;;;3.50;2.63;;;;;;;;;;4896209;29;20449;-73
2023/09/25 12:47:12;;;;;;;4.40;2.67;;;;;;;;;;4896810;29;20440;-72
2023/09/25 12:49:38;;;;;;;4.20;2.50;;;;;;;;;;4896600;29;20930;-72
2023/09/25 12:52:05;;;;;;;2.97;2.40;;;;;;;;;;4886986;29;20995;-72
2023/09/25 12:54:31;;;;;;;3.53;2.00;;;;;;;;;;4895165;29;20498;-71
2023/09/25 12:56:57;;;;;;;4.27;2.90;;;;;;;;;;4895747;29;20863;-71
2023/09/25 12:59:23;;;;;;;5.53;2.97;;;;;;;;;;4896708;29;20471;-70
2023/09/25 13:01:49;;;;;;;3.63;2.20;;;;;;;;;;4897476;29;20498;-70
2023/09/25 13:04:15;;;;;;;3.60;2.50;;;;;;;;;;4897440;29;20779;-72
2023/09/25 13:06:42;;;;;;;6.73;2.63;;;;;;;;;;4896694;29;20452;-73
2023/09/25 13:09:10;;;;;;;3.70;2.30;;;;;;;;;;4896599;29;20798;-72
2023/09/25 13:11:36;;;;;;;3.30;1.97;;;;;;;;;;4897076;29;20950;-71
2023/09/25 13:14:04;;;;;;;3.40;2.30;;;;;;;;;;4898801;29;20463;-72
2023/09/25 13:16:33;;;;;;;3.00;2.30;;;;;;;;;;4897333;29;20432;-71
2023/09/25 13:18:59;;;;;;;4.50;2.70;;;;;;;;;;4896519;29;20534;-72
2023/09/25 13:21:26;;;;;;;4.60;2.23;;;;;;;;;;4896542;29;20448;-72
2023/09/25 13:23:55;;;;;;;8.50;2.33;;;;;;;;;;4895990;29;20499;-73
2023/09/25 13:26:21;;;;;;;4.10;2.00;;;;;;;;;;4896266;29;20472;-72
2023/09/25 13:28:47;;;;;;;4.67;2.47;;;;;;;;;;4896250;29;20458;-71
2023/09/25 13:31:13;;;;;;;2.50;1.90;;;;;;;;;;4896344;29;20483;-72
2023/09/25 13:33:39;;;;;;;7.03;2.40;;;;;;;;;;4896226;29;20423;-72
2023/09/25 13:36:05;;;;;;;3.57;2.30;;;;;;;;;;4894906;29;20427;-72
2023/09/25 13:38:32;;;;;;;3.67;2.37;;;;;;;;;;4894957;29;20466;-72
2023/09/25 13:40:57;;;;;;;4.17;2.03;;;;;;;;;;4897882;29;20502;-72
2023/09/25 13:43:24;;;;;;;4.73;2.20;;;;;;;;;;4900483;29;20479;-72
2023/09/25 13:45:50;;;;;;;3.53;2.30;;;;;;;;;;4900069;29;20430;-72
2023/09/25 13:48:16;;;;;;;6.40;2.73;;;;;;;;;;4900239;29;20559;-71
2023/09/25 13:50:42;;;;;;;3.00;2.00;;;;;;;;;;4907581;29;20454;-72
2023/09/25 13:53:09;;;;;;;2.80;2.23;;;;;;;;;;4899791;29;20427;-72
2023/09/25 13:55:35;;;;;;;3.57;2.30;;;;;;;;;;4899907;29;20526;-72
2023/09/25 13:58:01;;;;;;;5.37;2.60;;;;;;;;;;4899684;29;20518;-72
2023/09/25 14:00:27;;;;;;;3.80;2.10;;;;;;;;;;4899502;29;20801;-72
2023/09/25 14:02:53;;;;;;;4.10;2.20;;;;;;;;;;4899892;29;20467;-72
2023/09/25 14:05:19;;;;;;;3.37;2.10;;;;;;;;;;4899784;29;20423;-71
2023/09/25 14:07:46;;;;;;;3.37;2.23;;;;;;;;;;4899422;29;20416;-72
2023/09/25 14:10:13;;;;;;;3.60;2.33;;;;;;;;;;4899759;29;20415;-72
2023/09/25 14:12:39;;;;;;;2.70;2.00;;;;;;;;;;4899450;29;20411;-72
2023/09/25 14:15:10;;;;;;;3.30;2.10;;;;;;;;;;4899735;29;20435;-71
2023/09/25 14:17:35;;;;;;;3.73;2.53;;;;;;;;;;4899957;29;20502;-72
2023/09/25 14:20:03;;;;;;;4.37;2.27;;;;;;;;;;4900181;29;20419;-72
2023/09/25 14:22:29;;;;;;;5.07;2.70;;;;;;;;;;4898678;29;20446;-73
2023/09/25 14:24:55;;;;;;;4.40;2.33;;;;;;;;;;4899577;29;20419;-73
2023/09/25 14:27:21;;;;;;;3.33;2.00;;;;;;;;;;4896084;29;20460;-72
2023/09/25 14:29:47;;;;;;;6.77;2.50;;;;;;;;;;4908217;29;20899;-72
2023/09/25 14:32:13;;;;;;;4.63;2.60;;;;;;;;;;4885856;29;20459;-72
2023/09/25 14:34:39;;;;;;;2.47;1.87;;;;;;;;;;4897593;29;20458;-72
2023/09/25 14:37:05;;;;;;;2.50;1.90;;;;;;;;;;4899404;29;20420;-72
2023/09/25 14:39:31;;;;;;;2.47;2.33;;;;;;;;;;4891303;29;20484;-72
2023/09/25 14:41:58;;;;;;;2.67;1.93;;;;;;;;;;4892723;29;20443;-72
2023/09/25 14:44:25;;;;;;;4.77;2.40;;;;;;;;;;4898199;29;20423;-72
2023/09/25 14:46:52;;;;;;;3.77;2.17;;;;;;;;;;4905329;29;20775;-72
2023/09/25 14:49:18;;;;;;;3.23;1.87;;;;;;;;;;4918082;29;20462;-72
2023/09/25 14:51:44;;;;;;;5.13;2.00;;;;;;;;;;4918168;29;20442;-71
2023/09/25 14:54:10;;;;;;;3.20;2.27;;;;;;;;;;4917908;29;20918;-71
2023/09/25 14:56:36;;;;;;;4.50;2.00;;;;;;;;;;4916964;29;20455;-71
2023/09/25 14:59:02;;;;;;;2.63;1.87;;;;;;;;;;4918184;29;20464;-71
2023/09/25 15:01:28;;;;;;;4.10;2.20;;;;;;;;;;4918075;29;20463;-72
2023/09/25 15:03:54;;;;;;;4.93;2.23;;;;;;;;;;4916885;29;20798;-72
2023/09/25 15:06:20;;;;;;;3.67;2.30;;;;;;;;;;4918197;29;20492;-71
2023/09/25 15:08:47;;;;;;;5.03;2.60;;;;;;;;;;4916061;29;20434;-71
2023/09/25 15:11:13;;;;;;;4.13;2.40;;;;;;;;;;4918107;29;20443;-72
2023/09/25 15:13:39;;;;;;;5.70;2.50;;;;;;;;;;4916521;29;20422;-73
2023/09/25 15:16:05;;;;;;;6.20;2.40;;;;;;;;;;4915932;29;20417;-72
2023/09/25 15:18:32;;;;;;;2.50;2.00;;;;;;;;;;4897274;29;20639;-72
2023/09/25 15:21:04;;;;;;;2.93;2.30;;;;;;;;;;4910068;29;20521;-72
2023/09/25 15:23:32;;;;;;;4.53;2.60;;;;;;;;;;4901601;29;20813;-72
2023/09/25 15:25:58;;;;;;;4.33;2.17;;;;;;;;;;4902411;29;20450;-71
2023/09/25 15:28:24;;;;;;;3.00;2.20;;;;;;;;;;4909034;29;20930;-72
2023/09/25 15:30:50;;;;;;;6.30;2.57;;;;;;;;;;4910686;29;20439;-72
2023/09/25 15:33:16;;;;;;;8.63;2.20;;;;;;;;;;4904531;29;20518;-71
2023/09/25 15:35:42;;;;;;;3.30;1.97;;;;;;;;;;4900527;29;20429;-73
2023/09/25 15:38:08;;;;;;;6.53;2.60;;;;;;;;;;4897603;29;20505;-73
2023/09/25 15:40:33;;;;;;;3.30;2.17;;;;;;;;;;4904030;29;20451;-71
2023/09/25 15:42:59;;;;;;;4.00;2.40;;;;;;;;;;4899397;29;20518;-73
2023/09/25 15:45:25;;;;;;;3.10;2.23;;;;;;;;;;4898286;29;20423;-71
2023/09/25 15:47:51;;;;;;;5.53;2.40;;;;;;;;;;4898618;29;20438;-71
2023/09/25 15:50:17;;;;;;;3.10;2.30;;;;;;;;;;4898447;29;21001;-71
2023/09/25 15:52:43;;;;;;;4.10;2.40;;;;;;;;;;4898408;29;20725;-72
2023/09/25 15:55:10;;;;;;;3.93;2.40;;;;;;;;;;4899275;29;20579;-71
2023/09/25 15:57:36;;;;;;;6.10;3.00;;;;;;;;;;4898211;29;20455;-71
2023/09/25 16:00:03;;;;;;;2.30;2.03;;;;;;;;;;4898386;29;20416;-71
2023/09/25 16:02:31;;;;;;;3.73;2.40;;;;;;;;;;4898001;29;20447;-71
2023/09/25 16:04:57;;;;;;;6.00;2.23;;;;;;;;;;4896382;29;20431;-70
2023/09/25 16:07:26;;;;;;;3.40;2.03;;;;;;;;;;4898418;29;20422;-71
2023/09/25 16:09:52;;;;;;;4.20;2.40;;;;;;;;;;4896262;29;20542;-70
2023/09/25 16:12:18;;;;;;;4.90;2.30;;;;;;;;;;4909146;29;20459;-71
2023/09/25 16:14:44;;;;;;;5.50;2.87;;;;;;;;;;4918014;29;20427;-71
2023/09/25 16:17:11;;;;;;;4.40;2.80;;;;;;;;;;4910750;29;20444;-71
2023/09/25 16:19:37;;;;;;;3.20;2.43;;;;;;;;;;4897637;29;20431;-71
2023/09/25 16:22:03;;;;;;;8.80;2.63;;;;;;;;;;4896663;29;20486;-72
2023/09/25 16:24:30;;;;;;;3.07;2.23;;;;;;;;;;4895108;29;20790;-72
2023/09/25 16:26:55;;;;;;;6.27;2.70;;;;;;;;;;4896275;29;20877;-72
2023/09/25 16:29:22;;;;;;;3.47;2.37;;;;;;;;;;4895509;29;20450;-72
2023/09/25 16:31:48;;;;;;;13.10;3.10;;;;;;;;;;4894761;29;20463;-72
2023/09/25 16:34:14;;;;;;;3.00;2.50;;;;;;;;;;4895898;29;20571;-72
2023/09/25 16:36:40;;;;;;;6.87;2.80;;;;;;;;;;4901364;29;20447;-72
2023/09/25 16:39:09;;;;;;;4.40;2.40;;;;;;;;;;4894517;29;20477;-72
2023/09/25 16:41:35;;;;;;;3.90;2.90;;;;;;;;;;4896446;29;20455;-73
2023/09/25 16:44:01;;;;;;;4.03;2.73;;;;;;;;;;4895254;29;20431;-72
2023/09/25 16:46:27;;;;;;;5.33;2.70;;;;;;;;;;4894919;29;21158;-72
2023/09/25 16:48:53;;;;;;;3.37;2.70;;;;;;;;;;4897521;29;20849;-72
2023/09/25 16:51:19;;;;;;;5.40;2.50;;;;;;;;;;4896326;29;20462;-72
2023/09/25 16:53:45;;;;;;;5.93;3.20;;;;;;;;;;4898803;29;20529;-72
2023/09/25 16:56:11;;;;;;;4.37;2.43;;;;;;;;;;4893828;29;20522;-72
2023/09/25 16:58:38;;;;;;;3.77;2.70;;;;;;;;;;4898919;29;20501;-73
2023/09/25 17:01:06;;;;;;;3.60;2.50;;;;;;;;;;4897406;29;20471;-72
2023/09/25 17:03:32;;;;;;;3.57;2.50;;;;;;;;;;4892066;29;20439;-72
2023/09/25 17:05:58;;;;;;;4.20;2.60;;;;;;;;;;4895352;29;20448;-73
2023/09/25 17:08:24;;;;;;;5.60;3.17;;;;;;;;;;4896111;29;20446;-73
2023/09/25 17:10:51;;;;;;;4.17;2.60;;;;;;;;;;4896470;29;20453;-73
2023/09/25 17:13:18;;;;;;;4.40;3.13;;;;;;;;;;4892707;29;20455;-70
2023/09/25 17:15:44;;;;;;;4.57;2.77;;;;;;;;;;4893417;29;20443;-72
2023/09/25 17:18:15;;;;;;;8.13;3.30;;;;;;;;;;4889421;29;20997;-70
2023/09/25 17:20:41;;;;;;;3.80;2.93;;;;;;;;;;4892828;29;20474;-71
2023/09/25 17:23:07;;;;;;;7.13;2.90;;;;;;;;;;4898111;29;20440;-70
2023/09/25 17:25:33;;;;;;;3.90;2.83;;;;;;;;;;4894095;29;20833;-70
2023/09/25 17:28:00;;;;;;;8.10;3.03;;;;;;;;;;4901261;29;20887;-71
2023/09/25 17:30:32;;;;;;;6.63;2.73;;;;;;;;;;4893443;29;20454;-70
2023/09/25 17:32:58;;;;;;;3.87;2.97;;;;;;;;;;4894043;29;20442;-70
2023/09/25 17:35:24;;;;;;;4.00;2.83;;;;;;;;;;4900513;29;20443;-70
2023/09/25 17:37:52;;;;;;;5.20;3.13;;;;;;;;;;4888956;29;20477;-71
2023/09/25 17:40:19;;;;;;;4.63;3.03;;;;;;;;;;4886648;29;20850;-71
2023/09/25 17:42:45;;;;;;;4.87;3.13;;;;;;;;;;4896704;29;20963;-71
2023/09/25 17:45:11;;;;;;;4.23;2.90;;;;;;;;;;4898329;29;20454;-71
2023/09/25 17:47:39;;;;;;;6.70;3.70;;;;;;;;;;4897275;29;20423;-71
2023/09/25 17:50:07;;;;;;;4.10;3.17;;;;;;;;;;4896587;29;20462;-72
2023/09/25 17:52:33;;;;;;;6.10;3.20;;;;;;;;;;4895919;29;20454;-71
2023/09/25 17:54:59;;;;;;;7.20;3.47;;;;;;;;;;4898005;29;20472;-71
2023/09/25 17:57:25;;;;;;;6.30;3.97;;;;;;;;;;4897362;29;20441;-70
2023/09/25 17:59:51;;;;;;;11.87;3.40;;;;;;;;;;4899927;29;20447;-71
2023/09/25 18:02:17;;;;;;;8.60;3.70;;;;;;;;;;4896507;29;20877;-70
2023/09/25 18:04:44;;;;;;;8.07;4.40;;;;;;;;;;4899202;29;20427;-70
2023/09/25 18:07:10;;;;;;;9.40;3.90;;;;;;;;;;4896622;29;20430;-71
2023/09/25 18:09:36;;;;;;;5.93;3.23;;;;;;;;;;4897016;29;20896;-72
2023/09/25 18:12:02;;;;;;;5.00;3.50;;;;;;;;;;4897706;29;20544;-71
2023/09/25 18:14:28;;;;;;;6.47;3.50;;;;;;;;;;4892079;29;20454;-72
2023/09/25 18:16:54;;;;;;;6.97;3.83;;;;;;;;;;4889618;29;20435;-71
2023/09/25 18:19:20;;;;;;;8.30;3.70;;;;;;;;;;4896884;29;20483;-71
2023/09/25 18:21:46;;;;;;;6.53;3.80;;;;;;;;;;4948052;23;20511;-72
2023/09/25 18:24:12;;;;;;;10.63;5.27;;;;;;;;;;4952869;29;20417;-72
2023/09/25 18:26:39;;;;;;;8.30;4.60;;;;;;;;;;4952879;28;20409;-72
2023/09/25 18:29:05;;;;;;;8.53;4.43;;;;;;;;;;4952301;28;20938;-72
2023/09/25 18:31:32;;;;;;;7.43;4.60;;;;;;;;;;4956246;29;20520;-73
2023/09/25 18:33:57;;;;;;;9.73;5.17;;;;;;;;;;4954269;28;20440;-76
2023/09/25 18:36:24;;;;;;;6.03;4.97;;;;;;;;;;4949464;29;20515;-72
2023/09/25 18:38:49;;;;;;;11.70;5.00;;;;;;;;;;4951480;29;20472;-72
2023/09/25 18:41:15;;;;;;;6.47;5.40;;;;;;;;;;4957543;29;20543;-73
2023/09/25 18:43:41;;;;;;;9.10;5.03;;;;;;;;;;4960789;29;20424;-71
2023/09/25 18:46:09;;;;;;;5.80;4.30;;;;;;;;;;4968106;29;20436;-72
2023/09/25 18:48:34;;;;;;;9.97;4.47;;;;;;;;;;4948322;29;20453;-69
2023/09/25 18:51:04;;;;;;;8.50;4.13;;;;;;;;;;4947535;29;20521;-71
2023/09/25 18:53:30;;;;;;;5.97;3.70;;;;;;;;;;4964028;29;20409;-71
2023/09/25 18:55:56;;;;;;;13.60;4.60;;;;;;;;;;4962336;29;20483;-71
2023/09/25 18:58:22;;;;;;;7.40;4.50;;;;;;;;;;4962503;29;20472;-71
2023/09/25 19:00:48;;;;;;;6.63;4.33;;;;;;;;;;4960940;29;20963;-71
2023/09/25 19:03:14;;;;;;;6.77;4.50;;;;;;;;;;4961072;29;20987;-71
2023/09/25 19:05:40;;;;;;;9.07;4.43;;;;;;;;;;4959295;29;20417;-69
2023/09/25 19:08:07;;;;;;;10.40;4.73;;;;;;;;;;4959588;29;20503;-69
2023/09/25 19:10:33;;;;;;;5.00;3.83;;;;;;;;;;4955148;29;20515;-68
2023/09/25 19:12:59;;;;;;;9.30;4.80;;;;;;;;;;4956388;29;20444;-70
2023/09/25 19:15:25;;;;;;;8.13;4.37;;;;;;;;;;4959171;28;20959;-71
2023/09/25 19:17:51;;;;;;;7.03;4.17;;;;;;;;;;4957162;29;20542;-69
2023/09/25 19:20:17;;;;;;;9.77;5.70;;;;;;;;;;4957499;29;20523;-71
2023/09/25 19:22:43;;;;;;;8.93;4.80;;;;;;;;;;4961878;28;20471;-69
2023/09/25 19:25:09;;;;;;;6.60;3.87;;;;;;;;;;4960849;28;20425;-71
2023/09/25 19:27:35;;;;;;;7.37;4.63;;;;;;;;;;4955247;29;20441;-71
2023/09/25 19:30:01;;;;;;;7.93;4.93;;;;;;;;;;4956549;29;20425;-71
2023/09/25 19:32:27;;;;;;;8.23;4.63;;;;;;;;;;4956365;29;20435;-71
2023/09/25 19:34:54;;;;;;;5.30;3.90;;;;;;;;;;4956074;29;20444;-71
2023/09/25 19:37:20;;;;;;;7.00;4.50;;;;;;;;;;4954825;28;20425;-71
2023/09/25 19:39:47;;;;;;;8.73;4.47;;;;;;;;;;4955823;28;20409;-69
2023/09/25 19:42:13;;;;;;;10.53;4.80;;;;;;;;;;4955817;28;20523;-71
2023/09/25 19:44:39;;;;;;;5.37;4.50;;;;;;;;;;4955606;28;20420;-69
2023/09/25 19:47:05;;;;;;;5.03;3.90;;;;;;;;;;4955576;29;20409;-69
2023/09/25 19:49:31;;;;;;;5.93;4.53;;;;;;;;;;4954992;29;20472;-69
2023/09/25 19:51:57;;;;;;;7.13;3.97;;;;;;;;;;4952291;29;20561;-69
2023/09/25 19:54:24;;;;;;;7.33;4.93;;;;;;;;;;4953002;29;20443;-69
2023/09/25 19:56:50;;;;;;;8.20;4.90;;;;;;;;;;4955249;28;20887;-70
2023/09/25 19:59:16;;;;;;;8.47;4.87;;;;;;;;;;4954699;29;20472;-70
2023/09/25 20:01:42;;;;;;;9.00;5.30;;;;;;;;;;4951473;28;20510;-71
2023/09/25 20:04:08;;;;;;;7.37;5.50;;;;;;;;;;4954481;29;20785;-72
2023/09/25 20:06:34;;;;;;;11.93;6.03;;;;;;;;;;4953787;29;20440;-70
2023/09/25 20:09:00;;;;;;;10.90;6.20;;;;;;;;;;4954665;29;20432;-69
2023/09/25 20:11:26;;;;;;;8.93;5.50;;;;;;;;;;4954691;29;20429;-69
2023/09/25 20:13:52;;;;;;;8.67;6.00;;;;;;;;;;4954625;29;20759;-69
2023/09/25 20:16:18;;;;;;;12.40;6.57;;;;;;;;;;4954922;29;20507;-69
2023/09/25 20:18:44;;;;;;;10.93;6.10;;;;;;;;;;4950922;29;20464;-69
2023/09/25 20:21:11;;;;;;;7.60;5.10;;;;;;;;;;4949682;29;20469;-69
2023/09/25 20:23:37;;;;;;;10.57;6.00;;;;;;;;;;4951786;29;20488;-69
2023/09/25 20:26:10;;;;;;;13.10;7.07;;;;;;;;;;4951072;29;20432;-70
2023/09/25 20:28:39;;;;;;;9.27;6.23;;;;;;;;;;4954535;29;20484;-69
2023/09/25 20:31:05;;;;;;;13.00;7.53;;;;;;;;;;4953929;29;20774;-69
2023/09/25 20:33:31;;;;;;;14.20;6.70;;;;;;;;;;4949218;29;20443;-68
2023/09/25 20:35:57;;;;;;;11.20;6.63;;;;;;;;;;4952025;29;20443;-68
2023/09/25 20:38:26;;;;;;;14.77;6.67;;;;;;;;;;4952160;29;20594;-70